Terminal Aerodrome Forecast
Issued by NWS

Home | Current Version | Previous Version | Text Only | Print | Product List | Glossary On
Versions: 1 2 3 4 5 6 7 8 9 10 11 12 13 14
000
FTUS46 KMFR 242333 AAA
TAFLMT
TAF AMD
KLMT 242333Z 2500/2524 34018G28KT P6SM SKC
     FM250500 34006KT P6SM SKC
     FM250900 VRB04KT P6SM SKC
     FM252000 28006KT P6SM SKC=

USA.gov is the U.S. government's official web portal to all federal, state and local government web resources and services.